sensor_id;sensor_type;location;lat;lon;timestamp;temperature;humidity
52799;DHT22;38667;42.872;74.622;2023-08-24T00:02:07;23.00;43.70
52799;DHT22;38667;42.872;74.622;2023-08-24T00:04:33;23.20;42.60
52799;DHT22;38667;42.872;74.622;2023-08-24T00:07:00;23.40;43.10
52799;DHT22;38667;42.872;74.622;2023-08-24T00:09:28;23.30;43.30
52799;DHT22;38667;42.872;74.622;2023-08-24T00:11:54;23.20;43.70
52799;DHT22;38667;42.872;74.622;2023-08-24T00:14:20;23.10;44.70
52799;DHT22;38667;42.872;74.622;2023-08-24T00:16:46;23.00;45.70
52799;DHT22;38667;42.872;74.622;2023-08-24T00:19:13;23.20;44.00
52799;DHT22;38667;42.872;74.622;2023-08-24T00:21:39;23.40;43.70
52799;DHT22;38667;42.872;74.622;2023-08-24T00:24:06;23.60;43.60
52799;DHT22;38667;42.872;74.622;2023-08-24T00:26:33;23.50;44.80
52799;DHT22;38667;42.872;74.622;2023-08-24T00:29:00;23.30;45.70
52799;DHT22;38667;42.872;74.622;2023-08-24T00:31:26;23.20;46.30
52799;DHT22;38667;42.872;74.622;2023-08-24T00:33:53;23.20;44.00
52799;DHT22;38667;42.872;74.622;2023-08-24T00:36:19;23.40;43.50
52799;DHT22;38667;42.872;74.622;2023-08-24T00:38:45;23.60;42.30
52799;DHT22;38667;42.872;74.622;2023-08-24T00:41:13;23.80;41.10
52799;DHT22;38667;42.872;74.622;2023-08-24T00:43:40;23.60;43.40
52799;DHT22;38667;42.872;74.622;2023-08-24T00:46:07;23.40;44.10
52799;DHT22;38667;42.872;74.622;2023-08-24T00:48:33;23.30;41.70
52799;DHT22;38667;42.872;74.622;2023-08-24T00:51:00;23.60;43.20
52799;DHT22;38667;42.872;74.622;2023-08-24T00:53:28;23.80;42.80
52799;DHT22;38667;42.872;74.622;2023-08-24T00:55:54;24.00;41.90
52799;DHT22;38667;42.872;74.622;2023-08-24T00:58:21;23.90;43.90
52799;DHT22;38667;42.872;74.622;2023-08-24T01:00:49;23.60;44.70
52799;DHT22;38667;42.872;74.622;2023-08-24T01:03:17;23.30;44.40
52799;DHT22;38667;42.872;74.622;2023-08-24T01:05:44;23.20;46.70
52799;DHT22;38667;42.872;74.622;2023-08-24T01:08:10;23.30;44.20
52799;DHT22;38667;42.872;74.622;2023-08-24T01:10:54;23.60;44.00
52799;DHT22;38667;42.872;74.622;2023-08-24T01:13:28;23.70;44.30
52799;DHT22;38667;42.872;74.622;2023-08-24T01:16:03;23.60;46.40
52799;DHT22;38667;42.872;74.622;2023-08-24T01:18:30;23.40;46.10
52799;DHT22;38667;42.872;74.622;2023-08-24T01:20:57;23.40;47.10
52799;DHT22;38667;42.872;74.622;2023-08-24T01:23:32;23.40;45.50
52799;DHT22;38667;42.872;74.622;2023-08-24T01:26:12;23.80;45.10
52799;DHT22;38667;42.872;74.622;2023-08-24T01:28:40;24.10;42.60
52799;DHT22;38667;42.872;74.622;2023-08-24T01:31:06;24.20;42.00
52799;DHT22;38667;42.872;74.622;2023-08-24T01:33:32;24.00;45.20
52799;DHT22;38667;42.872;74.622;2023-08-24T01:35:59;23.90;46.20
52799;DHT22;38667;42.872;74.622;2023-08-24T01:38:25;23.70;46.10
52799;DHT22;38667;42.872;74.622;2023-08-24T01:40:59;23.80;45.50
52799;DHT22;38667;42.872;74.622;2023-08-24T01:43:30;24.00;45.50
52799;DHT22;38667;42.872;74.622;2023-08-24T01:45:58;24.10;44.80
52799;DHT22;38667;42.872;74.622;2023-08-24T01:48:25;24.30;44.20
52799;DHT22;38667;42.872;74.622;2023-08-24T01:50:52;24.20;46.30
52799;DHT22;38667;42.872;74.622;2023-08-24T01:53:19;24.30;47.70
52799;DHT22;38667;42.872;74.622;2023-08-24T01:55:45;24.20;46.60
52799;DHT22;38667;42.872;74.622;2023-08-24T01:58:12;24.40;46.30
52799;DHT22;38667;42.872;74.622;2023-08-24T02:00:40;24.70;45.20
52799;DHT22;38667;42.872;74.622;2023-08-24T02:03:06;24.90;46.00
52799;DHT22;38667;42.872;74.622;2023-08-24T02:05:32;24.90;46.10
52799;DHT22;38667;42.872;74.622;2023-08-24T02:07:59;24.80;47.20
52799;DHT22;38667;42.872;74.622;2023-08-24T02:10:25;24.80;48.00
52799;DHT22;38667;42.872;74.622;2023-08-24T02:12:51;24.80;48.40
52799;DHT22;38667;42.872;74.622;2023-08-24T02:15:18;24.90;45.80
52799;DHT22;38667;42.872;74.622;2023-08-24T02:17:46;25.10;45.80
52799;DHT22;38667;42.872;74.622;2023-08-24T02:20:12;25.30;44.90
52799;DHT22;38667;42.872;74.622;2023-08-24T02:22:38;25.30;44.50
52799;DHT22;38667;42.872;74.622;2023-08-24T02:25:06;25.20;45.30
52799;DHT22;38667;42.872;74.622;2023-08-24T02:27:32;25.10;45.30
52799;DHT22;38667;42.872;74.622;2023-08-24T02:29:59;25.20;46.50
52799;DHT22;38667;42.872;74.622;2023-08-24T02:32:25;25.40;45.20
52799;DHT22;38667;42.872;74.622;2023-08-24T02:34:53;25.50;43.50
52799;DHT22;38667;42.872;74.622;2023-08-24T02:37:19;25.60;45.10
52799;DHT22;38667;42.872;74.622;2023-08-24T02:39:46;25.50;45.60
52799;DHT22;38667;42.872;74.622;2023-08-24T02:42:12;25.30;46.80
52799;DHT22;38667;42.872;74.622;2023-08-24T02:44:38;25.30;46.00
52799;DHT22;38667;42.872;74.622;2023-08-24T02:47:05;25.40;45.50
52799;DHT22;38667;42.872;74.622;2023-08-24T02:49:31;25.60;44.00
52799;DHT22;38667;42.872;74.622;2023-08-24T02:51:59;25.90;40.90
52799;DHT22;38667;42.872;74.622;2023-08-24T02:54:25;26.00;40.10
52799;DHT22;38667;42.872;74.622;2023-08-24T02:56:52;26.10;39.20
52799;DHT22;38667;42.872;74.622;2023-08-24T02:59:19;26.20;38.50
52799;DHT22;38667;42.872;74.622;2023-08-24T03:01:45;26.20;38.80
52799;DHT22;38667;42.872;74.622;2023-08-24T03:04:12;26.30;37.30
52799;DHT22;38667;42.872;74.622;2023-08-24T03:06:38;26.50;37.60
52799;DHT22;38667;42.872;74.622;2023-08-24T03:09:06;26.60;37.10
52799;DHT22;38667;42.872;74.622;2023-08-24T03:11:32;26.60;36.20
52799;DHT22;38667;42.872;74.622;2023-08-24T03:13:58;26.70;35.40
52799;DHT22;38667;42.872;74.622;2023-08-24T03:16:25;26.80;34.20
52799;DHT22;38667;42.872;74.622;2023-08-24T03:18:52;26.90;34.30
52799;DHT22;38667;42.872;74.622;2023-08-24T03:21:18;27.30;32.10
52799;DHT22;38667;42.872;74.622;2023-08-24T03:23:44;27.50;33.90
52799;DHT22;38667;42.872;74.622;2023-08-24T03:26:12;27.50;34.40
52799;DHT22;38667;42.872;74.622;2023-08-24T03:28:38;27.30;35.20
52799;DHT22;38667;42.872;74.622;2023-08-24T03:31:06;27.20;35.80
52799;DHT22;38667;42.872;74.622;2023-08-24T03:33:33;27.10;35.50
52799;DHT22;38667;42.872;74.622;2023-08-24T03:35:59;27.10;36.10
52799;DHT22;38667;42.872;74.622;2023-08-24T03:38:25;27.20;37.60
52799;DHT22;38667;42.872;74.622;2023-08-24T03:40:52;27.20;38.00
52799;DHT22;38667;42.872;74.622;2023-08-24T03:43:19;27.10;38.10
52799;DHT22;38667;42.872;74.622;2023-08-24T03:45:46;27.00;38.50
52799;DHT22;38667;42.872;74.622;2023-08-24T03:48:12;26.90;39.30
52799;DHT22;38667;42.872;74.622;2023-08-24T03:50:38;26.80;39.80
52799;DHT22;38667;42.872;74.622;2023-08-24T03:53:05;26.80;39.10
52799;DHT22;38667;42.872;74.622;2023-08-24T03:55:32;26.80;37.80
52799;DHT22;38667;42.872;74.622;2023-08-24T03:57:58;26.90;37.50
52799;DHT22;38667;42.872;74.622;2023-08-24T04:00:26;27.00;38.00
52799;DHT22;38667;42.872;74.622;2023-08-24T04:02:52;27.00;37.90
52799;DHT22;38667;42.872;74.622;2023-08-24T04:05:19;27.00;38.30
52799;DHT22;38667;42.872;74.622;2023-08-24T04:07:45;27.00;38.90
52799;DHT22;38667;42.872;74.622;2023-08-24T04:10:11;26.90;38.90
52799;DHT22;38667;42.872;74.622;2023-08-24T04:12:38;26.80;40.00
52799;DHT22;38667;42.872;74.622;2023-08-24T04:15:05;26.80;40.30
52799;DHT22;38667;42.872;74.622;2023-08-24T04:17:33;26.70;39.90
52799;DHT22;38667;42.872;74.622;2023-08-24T04:19:59;26.70;39.80
52799;DHT22;38667;42.872;74.622;2023-08-24T04:22:26;26.70;41.40
52799;DHT22;38667;42.872;74.622;2023-08-24T04:24:52;26.60;42.30
52799;DHT22;38667;42.872;74.622;2023-08-24T04:27:18;26.60;42.70
52799;DHT22;38667;42.872;74.622;2023-08-24T04:29:45;26.60;43.30
52799;DHT22;38667;42.872;74.622;2023-08-24T04:32:11;26.50;43.80
52799;DHT22;38667;42.872;74.622;2023-08-24T04:34:39;26.50;43.90
52799;DHT22;38667;42.872;74.622;2023-08-24T04:37:06;26.50;43.10
52799;DHT22;38667;42.872;74.622;2023-08-24T04:39:32;26.50;42.90
52799;DHT22;38667;42.872;74.622;2023-08-24T04:41:58;26.60;42.90
52799;DHT22;38667;42.872;74.622;2023-08-24T04:44:25;26.60;42.80
52799;DHT22;38667;42.872;74.622;2023-08-24T04:46:51;26.60;42.40
52799;DHT22;38667;42.872;74.622;2023-08-24T04:49:17;26.80;41.90
52799;DHT22;38667;42.872;74.622;2023-08-24T04:51:45;26.90;40.50
52799;DHT22;38667;42.872;74.622;2023-08-24T04:54:12;27.10;40.40
52799;DHT22;38667;42.872;74.622;2023-08-24T04:56:38;27.30;39.10
52799;DHT22;38667;42.872;74.622;2023-08-24T04:59:04;27.60;38.40
52799;DHT22;38667;42.872;74.622;2023-08-24T05:01:31;27.70;38.30
52799;DHT22;38667;42.872;74.622;2023-08-24T05:03:57;27.70;38.40
52799;DHT22;38667;42.872;74.622;2023-08-24T05:06:23;27.80;37.50
52799;DHT22;38667;42.872;74.622;2023-08-24T05:08:51;28.00;36.50
52799;DHT22;38667;42.872;74.622;2023-08-24T05:11:19;28.20;36.10
52799;DHT22;38667;42.872;74.622;2023-08-24T05:13:45;28.30;35.70
52799;DHT22;38667;42.872;74.622;2023-08-24T05:16:13;28.40;35.30
52799;DHT22;38667;42.872;74.622;2023-08-24T05:18:39;28.40;36.80
52799;DHT22;38667;42.872;74.622;2023-08-24T05:21:06;28.40;34.40
52799;DHT22;38667;42.872;74.622;2023-08-24T05:23:32;28.40;35.00
52799;DHT22;38667;42.872;74.622;2023-08-24T05:26:01;28.30;35.50
52799;DHT22;38667;42.872;74.622;2023-08-24T05:28:29;28.30;36.00
52799;DHT22;38667;42.872;74.622;2023-08-24T05:30:56;28.40;36.30
52799;DHT22;38667;42.872;74.622;2023-08-24T05:33:24;28.40;36.10
52799;DHT22;38667;42.872;74.622;2023-08-24T05:35:50;28.60;35.60
52799;DHT22;38667;42.872;74.622;2023-08-24T05:38:17;28.60;35.40
52799;DHT22;38667;42.872;74.622;2023-08-24T05:40:43;28.60;35.70
52799;DHT22;38667;42.872;74.622;2023-08-24T05:43:14;28.70;34.00
52799;DHT22;38667;42.872;74.622;2023-08-24T05:45:46;28.60;34.50
52799;DHT22;38667;42.872;74.622;2023-08-24T05:48:13;28.60;34.80
52799;DHT22;38667;42.872;74.622;2023-08-24T05:50:43;28.60;34.80
52799;DHT22;38667;42.872;74.622;2023-08-24T05:53:09;28.60;34.10
52799;DHT22;38667;42.872;74.622;2023-08-24T05:55:36;28.70;34.50
52799;DHT22;38667;42.872;74.622;2023-08-24T05:58:02;28.90;35.00
52799;DHT22;38667;42.872;74.622;2023-08-24T06:00:30;29.10;31.50
52799;DHT22;38667;42.872;74.622;2023-08-24T06:02:56;29.60;31.40
52799;DHT22;38667;42.872;74.622;2023-08-24T06:05:23;29.90;31.80
52799;DHT22;38667;42.872;74.622;2023-08-24T06:07:49;29.90;32.50
52799;DHT22;38667;42.872;74.622;2023-08-24T06:10:16;30.00;32.40
52799;DHT22;38667;42.872;74.622;2023-08-24T06:12:42;30.00;32.70
52799;DHT22;38667;42.872;74.622;2023-08-24T06:15:09;30.10;33.20
52799;DHT22;38667;42.872;74.622;2023-08-24T06:17:37;30.00;33.40
52799;DHT22;38667;42.872;74.622;2023-08-24T06:20:03;30.00;34.20
52799;DHT22;38667;42.872;74.622;2023-08-24T06:22:30;30.00;33.80
52799;DHT22;38667;42.872;74.622;2023-08-24T06:24:56;30.10;32.50
52799;DHT22;38667;42.872;74.622;2023-08-24T06:27:22;30.10;32.90
52799;DHT22;38667;42.872;74.622;2023-08-24T06:29:49;30.20;33.60
52799;DHT22;38667;42.872;74.622;2023-08-24T06:32:15;30.30;32.60
52799;DHT22;38667;42.872;74.622;2023-08-24T06:34:43;30.30;32.20
52799;DHT22;38667;42.872;74.622;2023-08-24T06:37:09;30.40;31.70
52799;DHT22;38667;42.872;74.622;2023-08-24T06:39:35;30.50;32.10
52799;DHT22;38667;42.872;74.622;2023-08-24T06:42:02;30.60;31.00
52799;DHT22;38667;42.872;74.622;2023-08-24T06:44:28;30.70;31.30
52799;DHT22;38667;42.872;74.622;2023-08-24T06:46:55;30.90;30.60
52799;DHT22;38667;42.872;74.622;2023-08-24T06:49:21;31.00;31.30
52799;DHT22;38667;42.872;74.622;2023-08-24T06:51:49;31.20;31.10
52799;DHT22;38667;42.872;74.622;2023-08-24T06:54:15;31.50;29.10
52799;DHT22;38667;42.872;74.622;2023-08-24T06:56:41;31.70;29.30
52799;DHT22;38667;42.872;74.622;2023-08-24T06:59:08;31.70;28.80
52799;DHT22;38667;42.872;74.622;2023-08-24T07:01:34;31.80;29.50
52799;DHT22;38667;42.872;74.622;2023-08-24T07:04:00;31.80;29.60
52799;DHT22;38667;42.872;74.622;2023-08-24T07:06:27;31.80;29.60
52799;DHT22;38667;42.872;74.622;2023-08-24T07:08:54;31.80;30.10
52799;DHT22;38667;42.872;74.622;2023-08-24T07:11:21;31.80;30.50
52799;DHT22;38667;42.872;74.622;2023-08-24T07:13:47;31.70;29.40
52799;DHT22;38667;42.872;74.622;2023-08-24T07:16:13;31.80;29.10
52799;DHT22;38667;42.872;74.622;2023-08-24T07:18:40;31.90;30.10
52799;DHT22;38667;42.872;74.622;2023-08-24T07:21:06;31.70;29.10
52799;DHT22;38667;42.872;74.622;2023-08-24T07:23:32;31.50;29.90
52799;DHT22;38667;42.872;74.622;2023-08-24T07:26:00;31.70;29.70
52799;DHT22;38667;42.872;74.622;2023-08-24T07:28:26;31.80;29.30
52799;DHT22;38667;42.872;74.622;2023-08-24T07:30:53;32.20;29.50
52799;DHT22;38667;42.872;74.622;2023-08-24T07:33:19;32.40;29.90
52799;DHT22;38667;42.872;74.622;2023-08-24T07:35:45;32.50;30.60
52799;DHT22;38667;42.872;74.622;2023-08-24T07:38:12;32.30;30.90
52799;DHT22;38667;42.872;74.622;2023-08-24T07:40:38;32.30;30.70
52799;DHT22;38667;42.872;74.622;2023-08-24T07:43:06;32.20;29.60
52799;DHT22;38667;42.872;74.622;2023-08-24T07:45:32;32.20;31.00
52799;DHT22;38667;42.872;74.622;2023-08-24T07:47:58;32.00;32.10
52799;DHT22;38667;42.872;74.622;2023-08-24T07:50:25;31.90;30.40
52799;DHT22;38667;42.872;74.622;2023-08-24T07:52:51;31.70;30.10
52799;DHT22;38667;42.872;74.622;2023-08-24T07:55:17;31.40;30.00
52799;DHT22;38667;42.872;74.622;2023-08-24T07:57:44;31.40;30.00
52799;DHT22;38667;42.872;74.622;2023-08-24T08:00:13;31.70;29.60
52799;DHT22;38667;42.872;74.622;2023-08-24T08:02:39;32.00;28.80
52799;DHT22;38667;42.872;74.622;2023-08-24T08:05:06;32.00;27.50
52799;DHT22;38667;42.872;74.622;2023-08-24T08:07:33;32.40;25.90
52799;DHT22;38667;42.872;74.622;2023-08-24T08:09:59;32.70;27.50
52799;DHT22;38667;42.872;74.622;2023-08-24T08:12:25;32.60;27.50
52799;DHT22;38667;42.872;74.622;2023-08-24T08:14:52;32.50;27.50
52799;DHT22;38667;42.872;74.622;2023-08-24T08:17:19;32.50;27.70
52799;DHT22;38667;42.872;74.622;2023-08-24T08:19:46;32.30;27.90
52799;DHT22;38667;42.872;74.622;2023-08-24T08:22:12;32.30;26.70
52799;DHT22;38667;42.872;74.622;2023-08-24T08:24:39;32.30;26.10
52799;DHT22;38667;42.872;74.622;2023-08-24T08:27:05;32.20;25.50
52799;DHT22;38667;42.872;74.622;2023-08-24T08:29:32;32.30;25.10
52799;DHT22;38667;42.872;74.622;2023-08-24T08:31:58;32.40;25.80
52799;DHT22;38667;42.872;74.622;2023-08-24T08:34:26;32.60;27.20
52799;DHT22;38667;42.872;74.622;2023-08-24T08:36:53;32.70;27.40
52799;DHT22;38667;42.872;74.622;2023-08-24T08:39:19;32.70;26.90
52799;DHT22;38667;42.872;74.622;2023-08-24T08:41:46;32.60;26.20
52799;DHT22;38667;42.872;74.622;2023-08-24T08:44:14;32.60;26.50
52799;DHT22;38667;42.872;74.622;2023-08-24T08:46:41;32.60;26.80
52799;DHT22;38667;42.872;74.622;2023-08-24T08:49:08;32.70;25.40
52799;DHT22;38667;42.872;74.622;2023-08-24T08:51:36;32.50;25.80
52799;DHT22;38667;42.872;74.622;2023-08-24T08:54:03;32.50;27.30
52799;DHT22;38667;42.872;74.622;2023-08-24T08:56:30;32.80;26.40
52799;DHT22;38667;42.872;74.622;2023-08-24T08:58:56;33.90;25.10
52799;DHT22;38667;42.872;74.622;2023-08-24T09:01:24;35.50;24.20
52799;DHT22;38667;42.872;74.622;2023-08-24T09:03:51;36.00;23.90
52799;DHT22;38667;42.872;74.622;2023-08-24T09:06:18;35.70;23.40
52799;DHT22;38667;42.872;74.622;2023-08-24T09:08:46;35.10;24.00
52799;DHT22;38667;42.872;74.622;2023-08-24T09:11:13;34.40;26.40
52799;DHT22;38667;42.872;74.622;2023-08-24T09:13:40;34.00;25.40
52799;DHT22;38667;42.872;74.622;2023-08-24T09:16:07;33.80;26.40
52799;DHT22;38667;42.872;74.622;2023-08-24T09:18:36;33.80;25.40
52799;DHT22;38667;42.872;74.622;2023-08-24T09:21:08;33.70;26.40
52799;DHT22;38667;42.872;74.622;2023-08-24T09:23:34;33.60;27.00
52799;DHT22;38667;42.872;74.622;2023-08-24T09:26:02;33.70;25.30
52799;DHT22;38667;42.872;74.622;2023-08-24T09:28:28;33.80;24.90
52799;DHT22;38667;42.872;74.622;2023-08-24T09:30:55;33.70;26.80
52799;DHT22;38667;42.872;74.622;2023-08-24T09:33:21;33.50;26.10
52799;DHT22;38667;42.872;74.622;2023-08-24T09:35:52;33.30;25.80
52799;DHT22;38667;42.872;74.622;2023-08-24T09:38:18;33.40;26.50
52799;DHT22;38667;42.872;74.622;2023-08-24T09:40:45;33.40;27.60
52799;DHT22;38667;42.872;74.622;2023-08-24T09:43:14;33.40;29.10
52799;DHT22;38667;42.872;74.622;2023-08-24T09:45:48;33.40;28.60
52799;DHT22;38667;42.872;74.622;2023-08-24T09:48:14;33.60;28.10
52799;DHT22;38667;42.872;74.622;2023-08-24T09:50:41;33.70;26.40
52799;DHT22;38667;42.872;74.622;2023-08-24T09:53:10;33.60;26.00
52799;DHT22;38667;42.872;74.622;2023-08-24T09:55:40;34.00;26.30
52799;DHT22;38667;42.872;74.622;2023-08-24T09:58:09;35.20;24.50
52799;DHT22;38667;42.872;74.622;2023-08-24T10:00:38;35.70;25.30
52799;DHT22;38667;42.872;74.622;2023-08-24T10:03:05;35.10;24.30
52799;DHT22;38667;42.872;74.622;2023-08-24T10:05:32;34.30;26.20
52799;DHT22;38667;42.872;74.622;2023-08-24T10:08:01;33.80;24.80
52799;DHT22;38667;42.872;74.622;2023-08-24T10:10:29;33.60;26.00
52799;DHT22;38667;42.872;74.622;2023-08-24T10:12:59;33.30;25.50
52799;DHT22;38667;42.872;74.622;2023-08-24T10:15:26;33.40;25.20
52799;DHT22;38667;42.872;74.622;2023-08-24T10:17:55;33.30;25.50
52799;DHT22;38667;42.872;74.622;2023-08-24T10:20:22;33.20;26.10
52799;DHT22;38667;42.872;74.622;2023-08-24T10:22:50;33.20;26.90
52799;DHT22;38667;42.872;74.622;2023-08-24T10:25:17;33.20;25.80
52799;DHT22;38667;42.872;74.622;2023-08-24T10:27:44;33.20;26.60
52799;DHT22;38667;42.872;74.622;2023-08-24T10:30:12;33.10;26.50
52799;DHT22;38667;42.872;74.622;2023-08-24T10:32:39;33.10;26.30
52799;DHT22;38667;42.872;74.622;2023-08-24T10:35:08;33.00;25.70
52799;DHT22;38667;42.872;74.622;2023-08-24T10:37:34;32.90;24.70
52799;DHT22;38667;42.872;74.622;2023-08-24T10:40:01;33.00;25.90
52799;DHT22;38667;42.872;74.622;2023-08-24T10:42:27;33.00;27.10
52799;DHT22;38667;42.872;74.622;2023-08-24T10:44:53;33.00;27.70
52799;DHT22;38667;42.872;74.622;2023-08-24T10:47:21;33.00;27.90
52799;DHT22;38667;42.872;74.622;2023-08-24T10:49:58;33.00;25.50
52799;DHT22;38667;42.872;74.622;2023-08-24T10:52:30;33.00;26.20
52799;DHT22;38667;42.872;74.622;2023-08-24T10:54:56;32.90;24.60
52799;DHT22;38667;42.872;74.622;2023-08-24T10:57:24;33.00;25.80
52799;DHT22;38667;42.872;74.622;2023-08-24T11:00:02;33.00;26.90
52799;DHT22;38667;42.872;74.622;2023-08-24T11:02:29;33.00;26.90
52799;DHT22;38667;42.872;74.622;2023-08-24T11:05:05;32.90;27.20
52799;DHT22;38667;42.872;74.622;2023-08-24T11:07:33;32.80;27.40
52799;DHT22;38667;42.872;74.622;2023-08-24T11:09:59;32.60;25.20
52799;DHT22;38667;42.872;74.622;2023-08-24T11:15:38;32.70;25.20
52799;DHT22;38667;42.872;74.622;2023-08-24T11:18:31;32.70;25.60
52799;DHT22;38667;42.872;74.622;2023-08-24T11:21:06;32.70;25.60
52799;DHT22;38667;42.872;74.622;2023-08-24T11:23:35;32.80;26.20
52799;DHT22;38667;42.872;74.622;2023-08-24T11:26:01;32.70;25.80
52799;DHT22;38667;42.872;74.622;2023-08-24T11:28:28;32.70;26.60
52799;DHT22;38667;42.872;74.622;2023-08-24T11:30:55;32.60;26.20
52799;DHT22;38667;42.872;74.622;2023-08-24T11:33:29;32.70;26.70
52799;DHT22;38667;42.872;74.622;2023-08-24T11:35:55;32.60;26.90
52799;DHT22;38667;42.872;74.622;2023-08-24T11:38:22;32.60;27.70
52799;DHT22;38667;42.872;74.622;2023-08-24T11:40:50;32.50;27.60
52799;DHT22;38667;42.872;74.622;2023-08-24T11:43:23;32.50;27.20
52799;DHT22;38667;42.872;74.622;2023-08-24T11:45:50;32.50;27.30
52799;DHT22;38667;42.872;74.622;2023-08-24T11:48:16;32.50;27.90
52799;DHT22;38667;42.872;74.622;2023-08-24T11:50:42;32.50;27.60
52799;DHT22;38667;42.872;74.622;2023-08-24T11:53:09;32.50;27.20
52799;DHT22;38667;42.872;74.622;2023-08-24T11:55:39;32.50;27.10
52799;DHT22;38667;42.872;74.622;2023-08-24T11:58:14;32.50;26.60
52799;DHT22;38667;42.872;74.622;2023-08-24T12:00:40;32.40;27.60
52799;DHT22;38667;42.872;74.622;2023-08-24T12:03:07;32.40;27.50
52799;DHT22;38667;42.872;74.622;2023-08-24T12:05:33;32.40;27.40
52799;DHT22;38667;42.872;74.622;2023-08-24T12:07:59;32.40;27.10
52799;DHT22;38667;42.872;74.622;2023-08-24T12:10:26;32.50;26.40
52799;DHT22;38667;42.872;74.622;2023-08-24T12:13:02;32.40;27.30
52799;DHT22;38667;42.872;74.622;2023-08-24T12:15:30;32.40;27.30
52799;DHT22;38667;42.872;74.622;2023-08-24T12:17:56;32.40;27.70
52799;DHT22;38667;42.872;74.622;2023-08-24T12:20:23;32.30;28.30
52799;DHT22;38667;42.872;74.622;2023-08-24T12:22:53;32.20;27.90
52799;DHT22;38667;42.872;74.622;2023-08-24T12:25:22;32.20;28.40
52799;DHT22;38667;42.872;74.622;2023-08-24T12:27:50;32.20;28.20
52799;DHT22;38667;42.872;74.622;2023-08-24T12:30:16;32.20;28.10
52799;DHT22;38667;42.872;74.622;2023-08-24T12:32:45;32.20;26.70
52799;DHT22;38667;42.872;74.622;2023-08-24T12:35:12;32.20;27.30
52799;DHT22;38667;42.872;74.622;2023-08-24T12:37:38;32.20;27.70
52799;DHT22;38667;42.872;74.622;2023-08-24T12:40:05;32.10;28.30
52799;DHT22;38667;42.872;74.622;2023-08-24T12:42:32;32.00;28.20
52799;DHT22;38667;42.872;74.622;2023-08-24T12:44:58;32.00;28.40
52799;DHT22;38667;42.872;74.622;2023-08-24T12:47:24;31.90;28.80
52799;DHT22;38667;42.872;74.622;2023-08-24T12:49:52;31.70;28.40
52799;DHT22;38667;42.872;74.622;2023-08-24T12:52:19;31.70;28.20
52799;DHT22;38667;42.872;74.622;2023-08-24T12:54:45;31.60;28.40
52799;DHT22;38667;42.872;74.622;2023-08-24T12:57:11;31.50;28.60
52799;DHT22;38667;42.872;74.622;2023-08-24T12:59:38;31.50;28.60
52799;DHT22;38667;42.872;74.622;2023-08-24T13:02:04;31.40;28.40
52799;DHT22;38667;42.872;74.622;2023-08-24T13:04:30;31.20;28.90
52799;DHT22;38667;42.872;74.622;2023-08-24T13:06:58;31.00;28.80
52799;DHT22;38667;42.872;74.622;2023-08-24T13:09:24;31.00;29.30
52799;DHT22;38667;42.872;74.622;2023-08-24T13:11:51;31.00;29.20
52799;DHT22;38667;42.872;74.622;2023-08-24T13:14:17;30.90;29.00
52799;DHT22;38667;42.872;74.622;2023-08-24T13:16:43;30.80;29.60
52799;DHT22;38667;42.872;74.622;2023-08-24T13:19:10;30.80;29.10
52799;DHT22;38667;42.872;74.622;2023-08-24T13:21:36;30.80;29.50
52799;DHT22;38667;42.872;74.622;2023-08-24T13:24:04;30.80;29.60
52799;DHT22;38667;42.872;74.622;2023-08-24T13:26:31;30.80;30.00
52799;DHT22;38667;42.872;74.622;2023-08-24T13:28:57;30.70;30.10
52799;DHT22;38667;42.872;74.622;2023-08-24T13:31:23;30.60;30.40
52799;DHT22;38667;42.872;74.622;2023-08-24T13:33:50;30.60;30.00
52799;DHT22;38667;42.872;74.622;2023-08-24T13:36:16;30.50;30.90
52799;DHT22;38667;42.872;74.622;2023-08-24T13:38:43;30.40;32.90
52799;DHT22;38667;42.872;74.622;2023-08-24T13:41:11;30.30;34.10
52799;DHT22;38667;42.872;74.622;2023-08-24T13:43:38;30.10;32.60
52799;DHT22;38667;42.872;74.622;2023-08-24T13:46:04;30.10;32.50
52799;DHT22;38667;42.872;74.622;2023-08-24T13:48:30;29.90;34.40
52799;DHT22;38667;42.872;74.622;2023-08-24T13:50:56;29.90;33.20
52799;DHT22;38667;42.872;74.622;2023-08-24T13:53:23;29.80;33.90
52799;DHT22;38667;42.872;74.622;2023-08-24T13:55:49;29.70;34.10
52799;DHT22;38667;42.872;74.622;2023-08-24T13:58:17;29.60;35.70
52799;DHT22;38667;42.872;74.622;2023-08-24T14:00:43;29.50;35.80
52799;DHT22;38667;42.872;74.622;2023-08-24T14:03:10;29.40;35.00
52799;DHT22;38667;42.872;74.622;2023-08-24T14:05:39;29.50;34.60
52799;DHT22;38667;42.872;74.622;2023-08-24T14:08:05;29.40;35.70
52799;DHT22;38667;42.872;74.622;2023-08-24T14:10:31;29.30;36.00
52799;DHT22;38667;42.872;74.622;2023-08-24T14:12:58;29.10;35.90
52799;DHT22;38667;42.872;74.622;2023-08-24T14:15:26;29.10;36.00
52799;DHT22;38667;42.872;74.622;2023-08-24T14:17:52;28.90;37.70
52799;DHT22;38667;42.872;74.622;2023-08-24T14:20:18;28.80;38.40
52799;DHT22;38667;42.872;74.622;2023-08-24T14:22:44;28.70;36.80
52799;DHT22;38667;42.872;74.622;2023-08-24T14:25:11;28.70;35.80
52799;DHT22;38667;42.872;74.622;2023-08-24T14:27:37;28.70;36.10
52799;DHT22;38667;42.872;74.622;2023-08-24T14:30:04;28.70;36.50
52799;DHT22;38667;42.872;74.622;2023-08-24T14:32:32;28.60;37.10
52799;DHT22;38667;42.872;74.622;2023-08-24T14:34:59;28.50;37.70
52799;DHT22;38667;42.872;74.622;2023-08-24T14:37:25;28.30;37.20
52799;DHT22;38667;42.872;74.622;2023-08-24T14:39:51;28.40;36.40
52799;DHT22;38667;42.872;74.622;2023-08-24T14:42:18;28.40;35.90
52799;DHT22;38667;42.872;74.622;2023-08-24T14:44:44;28.40;36.80
52799;DHT22;38667;42.872;74.622;2023-08-24T14:47:10;28.40;37.30
52799;DHT22;38667;42.872;74.622;2023-08-24T14:49:38;28.20;37.80
52799;DHT22;38667;42.872;74.622;2023-08-24T14:52:05;28.00;38.10
52799;DHT22;38667;42.872;74.622;2023-08-24T14:54:31;28.10;37.70
52799;DHT22;38667;42.872;74.622;2023-08-24T14:56:57;28.10;38.00
52799;DHT22;38667;42.872;74.622;2023-08-24T14:59:24;28.10;37.20
52799;DHT22;38667;42.872;74.622;2023-08-24T15:01:50;28.10;37.10
52799;DHT22;38667;42.872;74.622;2023-08-24T15:04:16;28.00;36.80
52799;DHT22;38667;42.872;74.622;2023-08-24T15:06:44;27.90;37.80
52799;DHT22;38667;42.872;74.622;2023-08-24T15:09:10;28.00;37.60
52799;DHT22;38667;42.872;74.622;2023-08-24T15:11:37;28.00;38.20
52799;DHT22;38667;42.872;74.622;2023-08-24T15:14:03;28.00;36.80
52799;DHT22;38667;42.872;74.622;2023-08-24T15:16:29;27.90;36.30
52799;DHT22;38667;42.872;74.622;2023-08-24T15:18:56;27.80;36.50